Time;durP1;ratioP1;P1;durP2;ratioP2;P2;SDS_P1;SDS_P2;PMS_P1;PMS_P2;Temp;Humidity;BMP_temperature;BMP_pressure;BME280_temperature;BME280_humidity;BME280_pressure;Samples;Min_cycle;Max_cycle;Signal;HPM_P1;HPM_P2
2023/03/27 00:00:41;;;;;;;15.60;12.80;;;;;;;;;;5015030;28;20021;-79
2023/03/27 00:03:07;;;;;;;25.15;18.77;;;;;;;;;;5006486;28;20033;-77
2023/03/27 00:05:32;;;;;;;28.17;19.20;;;;;;;;;;5016276;28;20042;-78
2023/03/27 00:08:00;;;;;;;25.42;18.75;;;;;;;;;;5016920;28;20311;-78
2023/03/27 00:10:26;;;;;;;34.15;25.33;;;;;;;;;;5009196;28;20024;-77
2023/03/27 00:12:51;;;;;;;33.08;24.15;;;;;;;;;;5011011;28;20013;-77
2023/03/27 00:15:16;;;;;;;33.45;23.00;;;;;;;;;;5005591;28;20379;-78
2023/03/27 00:17:43;;;;;;;47.25;30.05;;;;;;;;;;5005553;28;20029;-78
2023/03/27 00:20:09;;;;;;;32.10;20.50;;;;;;;;;;5016808;28;20033;-80
2023/03/27 00:22:34;;;;;;;23.55;15.98;;;;;;;;;;5016320;28;20029;-77
2023/03/27 00:25:00;;;;;;;26.73;18.42;;;;;;;;;;5017115;28;20408;-79
2023/03/27 00:27:25;;;;;;;48.17;29.45;;;;;;;;;;5009224;28;20029;-77
2023/03/27 00:29:52;;;;;;;44.58;32.30;;;;;;;;;;5011534;28;20021;-78
2023/03/27 00:32:18;;;;;;;30.85;23.85;;;;;;;;;;5012842;28;20072;-78
2023/03/27 00:34:43;;;;;;;31.05;21.02;;;;;;;;;;5013209;28;20461;-77
2023/03/27 00:37:08;;;;;;;22.83;17.73;;;;;;;;;;5016345;28;20034;-78
2023/03/27 00:39:34;;;;;;;24.67;19.00;;;;;;;;;;5030942;28;20338;-77
2023/03/27 00:41:59;;;;;;;19.63;14.90;;;;;;;;;;5007715;28;20037;-77
2023/03/27 00:44:29;;;;;;;35.25;23.40;;;;;;;;;;5012478;28;20029;-77
2023/03/27 00:46:55;;;;;;;17.20;12.38;;;;;;;;;;5018297;28;20045;-77
2023/03/27 00:49:21;;;;;;;11.75;8.82;;;;;;;;;;5014905;28;20437;-78
2023/03/27 00:51:47;;;;;;;19.40;14.05;;;;;;;;;;5016529;28;20041;-76
2023/03/27 00:54:15;;;;;;;9.27;7.05;;;;;;;;;;5012982;28;20025;-78
2023/03/27 00:56:40;;;;;;;8.65;5.65;;;;;;;;;;5015093;28;21332;-77
2023/03/27 00:59:09;;;;;;;17.55;10.25;;;;;;;;;;5015217;28;20036;-78
2023/03/27 01:01:35;;;;;;;28.35;19.05;;;;;;;;;;5008055;28;20036;-78
2023/03/27 01:04:02;;;;;;;14.77;10.80;;;;;;;;;;5016760;28;20029;-78
2023/03/27 01:06:28;;;;;;;11.68;8.35;;;;;;;;;;5016499;28;20037;-77
2023/03/27 01:08:53;;;;;;;14.60;10.43;;;;;;;;;;5014900;28;20036;-77
2023/03/27 01:11:27;;;;;;;23.63;16.92;;;;;;;;;;5029721;28;20041;-78
2023/03/27 01:13:53;;;;;;;31.52;23.13;;;;;;;;;;5006702;28;20036;-77
2023/03/27 01:16:25;;;;;;;35.33;25.30;;;;;;;;;;5012188;28;20038;-78
2023/03/27 01:19:00;;;;;;;18.70;14.02;;;;;;;;;;5017068;28;20018;-78
2023/03/27 01:21:37;;;;;;;11.82;8.05;;;;;;;;;;5015656;28;20051;-78
2023/03/27 01:24:15;;;;;;;19.52;13.25;;;;;;;;;;5004876;28;20022;-78
2023/03/27 01:26:56;;;;;;;48.03;23.95;;;;;;;;;;5015053;28;20036;-77
2023/03/27 01:29:37;;;;;;;63.05;27.58;;;;;;;;;;5006819;28;20025;-76
2023/03/27 01:32:08;;;;;;;32.00;14.55;;;;;;;;;;5014350;28;20357;-77
2023/03/27 01:34:37;;;;;;;19.58;10.27;;;;;;;;;;5014001;28;20029;-77
2023/03/27 01:37:20;;;;;;;39.60;22.70;;;;;;;;;;5012965;28;20092;-78
2023/03/27 01:40:06;;;;;;;69.28;39.38;;;;;;;;;;5014262;28;20065;-76
2023/03/27 01:42:35;;;;;;;29.63;16.60;;;;;;;;;;5016600;28;20079;-77
2023/03/27 01:45:03;;;;;;;39.20;22.08;;;;;;;;;;5015956;28;20456;-77
2023/03/27 01:47:43;;;;;;;37.88;22.80;;;;;;;;;;5015750;28;20041;-77
2023/03/27 01:50:08;;;;;;;36.63;25.15;;;;;;;;;;5029185;28;20064;-77
2023/03/27 01:52:37;;;;;;;52.95;33.67;;;;;;;;;;5014923;28;20057;-77
2023/03/27 01:55:03;;;;;;;11.38;8.35;;;;;;;;;;5013983;28;20061;-77
2023/03/27 01:57:36;;;;;;;18.17;13.05;;;;;;;;;;5012893;28;20025;-77
2023/03/27 02:00:16;;;;;;;40.30;23.88;;;;;;;;;;5014249;28;20542;-77
2023/03/27 02:02:41;;;;;;;;;;;;;;;;;;5016899;28;20032;-77
2023/03/27 02:05:16;;;;;;;27.57;18.57;;;;;;;;;;5014727;28;19913;-77
2023/03/27 02:07:46;;;;;;;55.47;27.90;;;;;;;;;;5014954;28;20029;-78
2023/03/27 02:10:16;;;;;;;35.08;22.48;;;;;;;;;;5015672;28;20678;-77
2023/03/27 02:12:44;;;;;;;26.33;19.40;;;;;;;;;;5015369;28;20030;-78
2023/03/27 02:15:12;;;;;;;25.25;18.48;;;;;;;;;;5006291;28;20084;-76
2023/03/27 02:17:41;;;;;;;10.98;8.52;;;;;;;;;;5008208;28;20071;-75
2023/03/27 02:20:15;;;;;;;7.93;4.93;;;;;;;;;;5015511;28;20034;-77
2023/03/27 02:22:41;;;;;;;6.90;5.40;;;;;;;;;;5011267;28;20029;-75
2023/03/27 02:25:21;;;;;;;10.75;7.90;;;;;;;;;;5015224;28;20041;-76
2023/03/27 02:27:47;;;;;;;11.45;7.68;;;;;;;;;;5013839;28;20025;-76
2023/03/27 02:30:31;;;;;;;9.63;7.07;;;;;;;;;;5011953;28;20341;-76
2023/03/27 02:33:08;;;;;;;7.72;5.90;;;;;;;;;;5013715;28;20022;-77
2023/03/27 02:35:34;;;;;;;19.13;10.85;;;;;;;;;;5006287;28;20039;-77
2023/03/27 02:38:07;;;;;;;11.23;7.82;;;;;;;;;;5007243;28;20029;-76
2023/03/27 02:40:33;;;;;;;9.43;7.18;;;;;;;;;;5013583;28;20053;-78
2023/03/27 02:43:01;;;;;;;7.85;5.90;;;;;;;;;;5009960;28;20072;-77
2023/03/27 02:45:36;;;;;;;18.52;11.57;;;;;;;;;;5000534;28;20038;-76
2023/03/27 02:48:17;;;;;;;13.30;8.35;;;;;;;;;;5011681;28;20018;-76
2023/03/27 02:50:54;;;;;;;10.30;7.22;;;;;;;;;;5012212;28;20025;-77
2023/03/27 02:53:21;;;;;;;7.32;4.88;;;;;;;;;;5015779;28;20127;-77
2023/03/27 02:55:53;;;;;;;6.85;3.85;;;;;;;;;;5003119;28;20116;-78
2023/03/27 02:58:31;;;;;;;5.78;4.32;;;;;;;;;;5015867;28;20228;-75
2023/03/27 03:00:57;;;;;;;7.25;6.43;;;;;;;;;;5013508;28;20021;-75
2023/03/27 03:03:29;;;;;;;20.42;14.13;;;;;;;;;;5014741;28;20025;-76
2023/03/27 03:05:55;;;;;;;10.55;7.97;;;;;;;;;;5011965;28;20068;-75
2023/03/27 03:08:20;;;;;;;8.85;7.38;;;;;;;;;;5010142;28;20057;-76
2023/03/27 03:10:46;;;;;;;8.55;6.63;;;;;;;;;;5005359;28;20410;-77
2023/03/27 03:13:12;;;;;;;8.85;6.80;;;;;;;;;;5013892;28;20030;-75
2023/03/27 03:15:38;;;;;;;11.25;9.95;;;;;;;;;;5014073;28;20452;-76
2023/03/27 03:18:03;;;;;;;8.30;7.32;;;;;;;;;;5011765;28;20037;-76
2023/03/27 03:20:28;;;;;;;9.52;5.63;;;;;;;;;;5012737;28;20036;-75
2023/03/27 03:22:55;;;;;;;6.25;4.85;;;;;;;;;;5005285;28;20044;-76
2023/03/27 03:25:20;;;;;;;4.55;3.53;;;;;;;;;;5004434;28;20433;-75
2023/03/27 03:27:45;;;;;;;5.18;3.75;;;;;;;;;;5013722;28;20088;-76
2023/03/27 03:30:11;;;;;;;5.32;2.75;;;;;;;;;;5015259;28;20026;-76
2023/03/27 03:32:36;;;;;;;3.67;2.20;;;;;;;;;;5007794;28;20037;-76
2023/03/27 03:35:01;;;;;;;12.32;10.27;;;;;;;;;;5009341;28;20345;-76
2023/03/27 03:37:27;;;;;;;12.55;11.25;;;;;;;;;;5018139;28;20356;-75
2023/03/27 03:39:56;;;;;;;9.23;8.32;;;;;;;;;;5017180;28;20047;-77
2023/03/27 03:42:21;;;;;;;8.55;7.10;;;;;;;;;;5003973;28;20087;-78
2023/03/27 03:44:46;;;;;;;19.95;16.10;;;;;;;;;;4995342;28;20055;-75
2023/03/27 03:47:12;;;;;;;22.15;16.63;;;;;;;;;;4994885;28;20053;-77
2023/03/27 03:49:37;;;;;;;18.73;15.65;;;;;;;;;;5004390;28;20926;-75
2023/03/27 03:52:03;;;;;;;22.42;16.75;;;;;;;;;;4995137;28;20087;-78
2023/03/27 03:54:28;;;;;;;24.90;21.25;;;;;;;;;;4995727;28;20022;-76
2023/03/27 03:56:53;;;;;;;20.80;17.10;;;;;;;;;;4997568;28;20044;-76
2023/03/27 03:59:20;;;;;;;21.33;17.35;;;;;;;;;;5014962;28;20024;-77
2023/03/27 04:01:45;;;;;;;32.22;22.67;;;;;;;;;;5016309;28;20030;-76
2023/03/27 04:04:10;;;;;;;40.92;30.45;;;;;;;;;;5010222;28;20741;-76
2023/03/27 04:06:36;;;;;;;35.25;25.20;;;;;;;;;;5028531;28;20416;-77
2023/03/27 04:09:02;;;;;;;26.42;19.20;;;;;;;;;;5013509;28;20030;-77
2023/03/27 04:11:28;;;;;;;23.73;17.27;;;;;;;;;;5008235;28;20095;-76
2023/03/27 04:13:53;;;;;;;23.95;17.65;;;;;;;;;;5002771;28;20017;-75
2023/03/27 04:16:18;;;;;;;308.02;217.25;;;;;;;;;;5005772;28;20034;-75
2023/03/27 04:18:44;;;;;;;33.10;26.33;;;;;;;;;;5005207;28;20395;-76
2023/03/27 04:21:16;;;;;;;20.00;16.10;;;;;;;;;;5015895;28;20067;-76
2023/03/27 04:23:44;;;;;;;17.67;14.38;;;;;;;;;;5017683;28;20048;-77
2023/03/27 04:26:11;;;;;;;258.38;145.93;;;;;;;;;;5004883;28;20029;-75
2023/03/27 04:28:36;;;;;;;279.70;171.77;;;;;;;;;;5017563;28;20032;-75
2023/03/27 04:31:05;;;;;;;264.83;163.85;;;;;;;;;;5015177;28;20025;-76
2023/03/27 04:33:33;;;;;;;235.15;155.75;;;;;;;;;;5015328;28;20017;-77
2023/03/27 04:35:59;;;;;;;48.42;31.25;;;;;;;;;;5019090;28;20510;-80
2023/03/27 04:38:25;;;;;;;84.57;60.58;;;;;;;;;;4999601;28;20129;-75
2023/03/27 04:40:51;;;;;;;35.15;25.45;;;;;;;;;;5005446;28;20108;-77
2023/03/27 04:43:16;;;;;;;31.85;24.83;;;;;;;;;;5016530;28;20030;-78
2023/03/27 04:45:46;;;;;;;15.70;11.38;;;;;;;;;;5007913;28;20688;-77
2023/03/27 04:48:12;;;;;;;10.75;8.45;;;;;;;;;;5010819;28;20333;-77
2023/03/27 04:50:37;;;;;;;14.25;10.07;;;;;;;;;;5014832;28;20025;-76
2023/03/27 04:53:03;;;;;;;21.63;17.25;;;;;;;;;;5012938;28;20673;-77
2023/03/27 04:55:29;;;;;;;13.75;9.23;;;;;;;;;;5014306;28;20032;-76
2023/03/27 04:57:56;;;;;;;38.40;31.35;;;;;;;;;;5017484;28;20033;-76
2023/03/27 05:00:22;;;;;;;19.20;14.50;;;;;;;;;;5015366;28;20072;-77
2023/03/27 05:02:51;;;;;;;22.52;15.18;;;;;;;;;;5013461;28;20025;-76
2023/03/27 05:05:17;;;;;;;29.50;19.27;;;;;;;;;;5014646;28;20067;-78
2023/03/27 05:07:46;;;;;;;49.22;37.78;;;;;;;;;;5005040;28;20998;-76
2023/03/27 05:10:12;;;;;;;11.60;7.30;;;;;;;;;;5011930;28;20026;-77
2023/03/27 05:12:47;;;;;;;31.30;19.20;;;;;;;;;;5003695;28;20026;-75
2023/03/27 05:15:13;;;;;;;24.20;13.45;;;;;;;;;;5001728;28;20025;-77
2023/03/27 05:17:42;;;;;;;19.45;12.02;;;;;;;;;;5011797;28;20049;-76
2023/03/27 05:20:13;;;;;;;11.98;8.10;;;;;;;;;;5013695;28;20030;-79
2023/03/27 05:22:38;;;;;;;21.48;17.85;;;;;;;;;;5016517;28;20040;-79
2023/03/27 05:25:04;;;;;;;36.20;24.65;;;;;;;;;;5015705;28;20033;-76
2023/03/27 05:27:29;;;;;;;29.95;21.95;;;;;;;;;;5016019;28;20017;-79
2023/03/27 05:29:54;;;;;;;16.25;9.57;;;;;;;;;;5016646;28;20030;-78
2023/03/27 05:32:20;;;;;;;15.95;12.27;;;;;;;;;;5011894;28;20025;-79
2023/03/27 05:34:49;;;;;;;14.95;10.68;;;;;;;;;;5018248;28;20081;-78
2023/03/27 05:37:15;;;;;;;16.53;10.77;;;;;;;;;;5016369;28;20489;-78
2023/03/27 05:39:40;;;;;;;16.60;11.23;;;;;;;;;;5016191;28;20258;-78
2023/03/27 05:42:06;;;;;;;9.70;8.05;;;;;;;;;;5015276;28;20044;-77
2023/03/27 05:44:31;;;;;;;9.13;7.65;;;;;;;;;;5012297;28;20068;-78
2023/03/27 05:46:56;;;;;;;7.38;5.50;;;;;;;;;;5013674;28;20054;-77
2023/03/27 05:49:22;;;;;;;23.60;17.90;;;;;;;;;;5013726;28;20034;-78
2023/03/27 05:51:47;;;;;;;34.88;29.55;;;;;;;;;;5012959;28;20120;-78
2023/03/27 05:54:12;;;;;;;18.30;13.52;;;;;;;;;;5012874;28;20109;-85
2023/03/27 05:56:38;;;;;;;14.48;9.55;;;;;;;;;;5013930;28;20437;-77
2023/03/27 05:59:03;;;;;;;18.45;12.38;;;;;;;;;;5016700;28;20064;-78
2023/03/27 06:01:29;;;;;;;35.45;25.15;;;;;;;;;;5004552;28;20156;-78
2023/03/27 06:03:54;;;;;;;23.70;17.45;;;;;;;;;;5013539;28;20025;-78
2023/03/27 06:06:20;;;;;;;24.05;18.10;;;;;;;;;;5013122;28;20038;-79
2023/03/27 06:08:45;;;;;;;21.15;15.95;;;;;;;;;;5015870;28;20021;-78
2023/03/27 06:11:11;;;;;;;22.05;15.02;;;;;;;;;;5014379;28;20368;-82
2023/03/27 06:13:36;;;;;;;23.08;15.82;;;;;;;;;;5016112;28;20033;-77
2023/03/27 06:16:03;;;;;;;24.05;17.60;;;;;;;;;;5014939;28;20413;-78
2023/03/27 06:18:29;;;;;;;19.23;14.10;;;;;;;;;;5015863;28;20044;-79
2023/03/27 06:20:54;;;;;;;14.65;10.55;;;;;;;;;;5016477;28;20432;-81
2023/03/27 06:23:19;;;;;;;12.60;9.25;;;;;;;;;;5013979;28;20060;-77
2023/03/27 06:25:46;;;;;;;12.15;8.75;;;;;;;;;;5016292;28;20112;-78
2023/03/27 06:28:12;;;;;;;14.43;10.32;;;;;;;;;;5011556;28;20025;-78
2023/03/27 06:30:37;;;;;;;22.20;15.15;;;;;;;;;;5002216;28;20532;-78
2023/03/27 06:33:03;;;;;;;109.40;77.40;;;;;;;;;;5001671;28;20026;-77
2023/03/27 06:35:30;;;;;;;68.65;52.88;;;;;;;;;;5006454;28;20033;-76
2023/03/27 06:37:57;;;;;;;67.05;53.47;;;;;;;;;;5018126;28;20021;-77
2023/03/27 06:40:24;;;;;;;82.35;66.32;;;;;;;;;;5005356;28;20153;-77
2023/03/27 06:43:05;;;;;;;30.63;23.30;;;;;;;;;;5001050;28;20025;-76
2023/03/27 06:45:37;;;;;;;23.48;17.45;;;;;;;;;;5010308;28;20116;-78
2023/03/27 06:48:03;;;;;;;50.17;24.98;;;;;;;;;;5006766;28;20021;-77
2023/03/27 06:50:30;;;;;;;41.20;22.50;;;;;;;;;;5001573;28;20041;-78
2023/03/27 06:52:55;;;;;;;28.90;19.23;;;;;;;;;;5012666;28;20345;-78
2023/03/27 06:55:22;;;;;;;28.67;19.30;;;;;;;;;;5003963;28;20021;-79
2023/03/27 06:57:48;;;;;;;19.05;15.32;;;;;;;;;;5000845;28;20029;-83
2023/03/27 07:00:18;;;;;;;21.90;13.88;;;;;;;;;;5000378;28;20033;-79
2023/03/27 07:02:43;;;;;;;;;;;;;;;;;;5005783;28;20021;-78
2023/03/27 07:05:09;;;;;;;15.35;10.07;;;;;;;;;;5004673;28;19968;-81
2023/03/27 07:07:35;;;;;;;14.65;10.77;;;;;;;;;;5007188;28;20077;-81
2023/03/27 07:10:00;;;;;;;14.43;8.90;;;;;;;;;;5016884;28;20037;-79
2023/03/27 07:12:26;;;;;;;12.63;10.40;;;;;;;;;;5017069;28;20736;-77
2023/03/27 07:14:51;;;;;;;14.98;12.73;;;;;;;;;;5019713;28;20080;-78
2023/03/27 07:17:17;;;;;;;8.88;7.55;;;;;;;;;;5015522;28;20128;-77
2023/03/27 07:19:42;;;;;;;16.05;12.45;;;;;;;;;;5015638;28;20038;-77
2023/03/27 07:22:07;;;;;;;14.05;11.07;;;;;;;;;;5018493;28;20072;-77
2023/03/27 07:24:33;;;;;;;7.57;6.75;;;;;;;;;;5004288;28;20026;-81
2023/03/27 07:26:58;;;;;;;10.40;8.13;;;;;;;;;;5008716;28;20026;-79
2023/03/27 07:29:23;;;;;;;5.10;4.60;;;;;;;;;;5005982;28;20037;-79
2023/03/27 07:31:49;;;;;;;6.38;4.88;;;;;;;;;;5001856;28;20464;-78
2023/03/27 07:34:14;;;;;;;5.38;4.53;;;;;;;;;;4999956;28;20042;-77
2023/03/27 07:36:39;;;;;;;3.88;3.47;;;;;;;;;;5000899;28;20900;-77
2023/03/27 07:39:05;;;;;;;6.00;5.38;;;;;;;;;;5001923;28;20061;-78
2023/03/27 07:41:30;;;;;;;12.85;11.52;;;;;;;;;;5004262;28;20104;-81
2023/03/27 07:43:56;;;;;;;11.13;9.95;;;;;;;;;;5026288;28;20165;-83
2023/03/27 07:46:22;;;;;;;5.78;5.15;;;;;;;;;;5017638;28;20127;-82
2023/03/27 07:48:49;;;;;;;6.03;5.10;;;;;;;;;;5014230;28;20025;-79
2023/03/27 07:51:16;;;;;;;5.00;3.75;;;;;;;;;;5017344;28;20483;-79
2023/03/27 07:53:42;;;;;;;4.90;4.22;;;;;;;;;;5017595;28;20029;-81
2023/03/27 07:56:07;;;;;;;10.93;9.73;;;;;;;;;;5014531;28;20387;-80
2023/03/27 07:58:33;;;;;;;4.75;4.35;;;;;;;;;;5017452;28;20061;-83
2023/03/27 08:01:00;;;;;;;5.30;2.60;;;;;;;;;;5014563;28;20029;-83
2023/03/27 08:03:26;;;;;;;2.55;2.30;;;;;;;;;;5013035;28;20039;-79
2023/03/27 08:05:53;;;;;;;4.55;3.97;;;;;;;;;;5018535;28;20482;-80
2023/03/27 08:08:18;;;;;;;5.68;4.28;;;;;;;;;;5013721;28;20026;-81
2023/03/27 08:10:44;;;;;;;4.90;4.28;;;;;;;;;;5017056;28;20032;-79
2023/03/27 08:13:11;;;;;;;5.95;5.35;;;;;;;;;;5009801;28;20412;-80
2023/03/27 08:15:36;;;;;;;5.10;4.40;;;;;;;;;;5016113;28;20061;-82
2023/03/27 08:18:02;;;;;;;8.55;5.60;;;;;;;;;;5015530;28;20064;-80
2023/03/27 08:20:29;;;;;;;6.60;6.00;;;;;;;;;;5011584;28;20041;-81
2023/03/27 08:22:54;;;;;;;5.57;5.07;;;;;;;;;;5015568;28;20140;-80
2023/03/27 08:25:21;;;;;;;7.35;5.57;;;;;;;;;;5017455;28;20112;-80
2023/03/27 08:27:46;;;;;;;4.63;4.22;;;;;;;;;;5015630;28;20022;-81
2023/03/27 08:30:13;;;;;;;4.20;3.80;;;;;;;;;;5012347;28;20172;-80
2023/03/27 08:32:39;;;;;;;5.25;4.75;;;;;;;;;;5014443;28;20116;-79
2023/03/27 08:35:06;;;;;;;4.65;4.22;;;;;;;;;;5032206;28;20116;-80
2023/03/27 08:37:31;;;;;;;7.20;5.45;;;;;;;;;;5018159;28;20164;-81
2023/03/27 08:39:57;;;;;;;7.75;6.47;;;;;;;;;;5017186;28;20089;-81
2023/03/27 08:42:28;;;;;;;12.88;10.60;;;;;;;;;;5014324;28;20516;-83
2023/03/27 08:44:54;;;;;;;9.90;8.30;;;;;;;;;;5015023;28;20127;-84
2023/03/27 08:47:30;;;;;;;33.25;23.13;;;;;;;;;;5019453;28;20419;-81
2023/03/27 08:49:56;;;;;;;19.40;16.83;;;;;;;;;;5017541;28;20326;-82
2023/03/27 08:52:27;;;;;;;13.15;10.13;;;;;;;;;;5016929;28;20410;-84
2023/03/27 08:55:03;;;;;;;6.00;5.18;;;;;;;;;;5016338;28;20124;-79
2023/03/27 08:57:31;;;;;;;9.95;7.07;;;;;;;;;;5017072;28;20030;-83
2023/03/27 08:59:58;;;;;;;11.82;8.70;;;;;;;;;;5015674;28;20034;-81
2023/03/27 09:02:36;;;;;;;12.20;9.05;;;;;;;;;;5015689;28;20109;-83
2023/03/27 09:05:01;;;;;;;11.80;9.32;;;;;;;;;;5016321;28;20033;-78
2023/03/27 09:07:31;;;;;;;13.82;9.57;;;;;;;;;;5016650;28;20030;-78
2023/03/27 09:10:02;;;;;;;8.40;7.35;;;;;;;;;;5015199;28;20021;-79
2023/03/27 09:12:54;;;;;;;10.60;7.50;;;;;;;;;;5016095;28;20121;-80
2023/03/27 09:15:24;;;;;;;15.18;11.38;;;;;;;;;;5005999;28;20133;-82
2023/03/27 09:17:59;;;;;;;13.15;9.77;;;;;;;;;;5013130;28;20067;-81
2023/03/27 09:20:31;;;;;;;12.15;9.57;;;;;;;;;;5010193;28;20457;-81
2023/03/27 09:23:04;;;;;;;11.60;9.68;;;;;;;;;;5017143;28;20437;-79
2023/03/27 09:25:29;;;;;;;13.85;11.13;;;;;;;;;;5015922;28;20113;-83
2023/03/27 09:27:56;;;;;;;17.25;11.65;;;;;;;;;;5015921;28;20385;-83
2023/03/27 09:30:24;;;;;;;13.25;10.60;;;;;;;;;;5013539;28;20029;-80
2023/03/27 09:32:52;;;;;;;18.67;14.48;;;;;;;;;;5012791;28;20052;-82
2023/03/27 09:35:19;;;;;;;16.50;13.60;;;;;;;;;;5016058;28;20318;-81
2023/03/27 09:37:45;;;;;;;17.25;13.90;;;;;;;;;;5016018;28;20456;-81
2023/03/27 09:40:23;;;;;;;12.02;10.57;;;;;;;;;;5014874;28;20026;-82
2023/03/27 09:42:51;;;;;;;20.77;17.27;;;;;;;;;;5012888;28;20026;-82
2023/03/27 09:45:18;;;;;;;33.13;29.48;;;;;;;;;;5016042;28;20941;-80
2023/03/27 09:47:43;;;;;;;35.22;27.27;;;;;;;;;;5014270;28;20342;-80
2023/03/27 09:50:20;;;;;;;19.88;17.75;;;;;;;;;;5016568;28;20040;-81
2023/03/27 09:52:45;;;;;;;35.47;26.33;;;;;;;;;;5016240;28;20017;-78
2023/03/27 09:55:43;;;;;;;28.27;20.52;;;;;;;;;;5015951;28;20357;-78
2023/03/27 09:58:08;;;;;;;48.72;36.28;;;;;;;;;;5004976;28;20068;-78
2023/03/27 10:00:33;;;;;;;36.20;29.70;;;;;;;;;;5012584;28;20057;-80
2023/03/27 10:03:04;;;;;;;28.27;22.98;;;;;;;;;;5015483;28;20048;-78
2023/03/27 10:05:30;;;;;;;36.40;22.15;;;;;;;;;;5012631;28;20423;-77
2023/03/27 10:07:56;;;;;;;31.85;28.38;;;;;;;;;;5011374;28;20030;-77
2023/03/27 10:10:23;;;;;;;27.10;22.73;;;;;;;;;;5016222;28;20031;-80
2023/03/27 10:12:53;;;;;;;20.00;16.90;;;;;;;;;;5019441;28;20021;-79
2023/03/27 10:15:24;;;;;;;14.95;11.75;;;;;;;;;;5012132;28;20452;-79
2023/03/27 10:17:49;;;;;;;11.70;9.20;;;;;;;;;;5010991;28;20056;-77
2023/03/27 10:20:16;;;;;;;30.52;24.02;;;;;;;;;;5013671;28;20054;-78
2023/03/27 10:22:42;;;;;;;76.55;60.28;;;;;;;;;;5012226;28;20091;-77
2023/03/27 10:25:18;;;;;;;72.50;61.13;;;;;;;;;;5015896;28;20029;-78
2023/03/27 10:27:43;;;;;;;56.33;49.38;;;;;;;;;;5015441;28;20071;-81
2023/03/27 10:30:27;;;;;;;51.47;41.58;;;;;;;;;;5012874;28;20037;-77
2023/03/27 10:32:53;;;;;;;43.40;36.42;;;;;;;;;;5013888;28;20029;-79
2023/03/27 10:35:23;;;;;;;57.13;50.42;;;;;;;;;;5015050;28;20407;-79
2023/03/27 10:37:50;;;;;;;78.57;61.08;;;;;;;;;;5031051;28;20372;-80
2023/03/27 10:40:17;;;;;;;89.30;70.32;;;;;;;;;;5018024;28;20044;-80
2023/03/27 10:42:43;;;;;;;64.53;47.90;;;;;;;;;;5019547;28;20029;-79
2023/03/27 10:45:14;;;;;;;39.70;30.55;;;;;;;;;;5021301;28;20037;-82
2023/03/27 10:47:45;;;;;;;30.35;21.23;;;;;;;;;;5015470;28;20073;-79
2023/03/27 10:50:37;;;;;;;76.85;55.83;;;;;;;;;;5016401;28;20030;-81
2023/03/27 10:53:26;;;;;;;49.15;40.17;;;;;;;;;;5016739;28;20034;-79
2023/03/27 10:55:57;;;;;;;63.78;52.17;;;;;;;;;;5016728;28;20029;-81
2023/03/27 10:58:28;;;;;;;49.00;32.92;;;;;;;;;;5019084;28;20036;-81
2023/03/27 11:00:59;;;;;;;31.65;23.65;;;;;;;;;;5018467;28;20025;-79
2023/03/27 11:03:48;;;;;;;23.13;16.17;;;;;;;;;;5018409;28;20112;-80
2023/03/27 11:06:15;;;;;;;8.13;6.28;;;;;;;;;;5002497;28;20045;-80
2023/03/27 11:08:43;;;;;;;18.02;11.35;;;;;;;;;;5032808;28;20021;-80
2023/03/27 11:11:14;;;;;;;21.58;16.25;;;;;;;;;;5018391;28;20036;-80
2023/03/27 11:13:42;;;;;;;12.32;7.00;;;;;;;;;;5015489;28;20112;-78
2023/03/27 11:16:19;;;;;;;17.20;10.00;;;;;;;;;;5033891;28;20334;-78
2023/03/27 11:18:50;;;;;;;5.38;4.22;;;;;;;;;;5020048;28;20021;-79
2023/03/27 11:21:22;;;;;;;41.67;24.55;;;;;;;;;;5017858;28;20025;-82
2023/03/27 11:23:50;;;;;;;97.55;49.08;;;;;;;;;;5018863;28;20750;-81
2023/03/27 11:26:17;;;;;;;34.08;22.52;;;;;;;;;;5019338;28;20082;-81
2023/03/27 11:28:53;;;;;;;445.65;253.27;;;;;;;;;;5014097;28;20033;-80
2023/03/27 11:31:33;;;;;;;131.73;84.68;;;;;;;;;;5018408;28;20500;-81
2023/03/27 11:34:04;;;;;;;141.40;107.18;;;;;;;;;;5018346;28;20157;-79
2023/03/27 11:36:43;;;;;;;118.53;74.18;;;;;;;;;;5018332;28;20057;-80
2023/03/27 11:39:21;;;;;;;162.02;104.18;;;;;;;;;;5013213;28;20767;-81
2023/03/27 11:41:54;;;;;;;60.35;40.00;;;;;;;;;;5017630;28;20108;-79
2023/03/27 11:44:20;;;;;;;47.88;33.83;;;;;;;;;;5015120;28;20099;-81
2023/03/27 11:46:52;;;;;;;47.33;37.75;;;;;;;;;;5016201;28;20045;-80
2023/03/27 11:49:28;;;;;;;24.17;21.55;;;;;;;;;;5015683;28;20045;-81
2023/03/27 11:52:02;;;;;;;28.48;25.20;;;;;;;;;;5018768;28;20033;-82
2023/03/27 11:54:30;;;;;;;201.38;131.23;;;;;;;;;;5015644;28;20033;-78
2023/03/27 11:56:58;;;;;;;86.50;67.43;;;;;;;;;;5017979;28;20445;-81
2023/03/27 11:59:35;;;;;;;31.30;27.90;;;;;;;;;;5020060;28;20171;-81
2023/03/27 12:02:19;;;;;;;16.05;12.25;;;;;;;;;;5014566;28;20022;-80
2023/03/27 12:04:49;;;;;;;46.30;29.58;;;;;;;;;;5017379;28;20029;-81
2023/03/27 12:07:18;;;;;;;22.83;17.70;;;;;;;;;;5014169;28;20029;-81
2023/03/27 12:09:46;;;;;;;63.95;44.88;;;;;;;;;;5012544;28;20037;-83
2023/03/27 12:12:37;;;;;;;52.95;33.30;;;;;;;;;;5012604;28;20033;-81
2023/03/27 12:15:21;;;;;;;39.33;31.80;;;;;;;;;;5015900;28;20026;-82
2023/03/27 12:17:59;;;;;;;43.70;30.05;;;;;;;;;;5013429;28;20040;-82
2023/03/27 12:20:36;;;;;;;50.55;37.47;;;;;;;;;;5016724;28;20092;-81
2023/03/27 12:23:07;;;;;;;47.40;26.70;;;;;;;;;;5014125;28;20022;-80
2023/03/27 12:25:38;;;;;;;50.92;32.10;;;;;;;;;;5016988;28;20026;-81
2023/03/27 12:28:15;;;;;;;10.90;7.45;;;;;;;;;;5015747;28;20033;-81
2023/03/27 12:31:08;;;;;;;28.30;16.92;;;;;;;;;;5013408;28;20420;-81
2023/03/27 12:33:33;;;;;;;29.55;20.05;;;;;;;;;;4992612;28;20041;-81
2023/03/27 12:36:01;;;;;;;116.18;76.15;;;;;;;;;;5015585;28;20029;-82
2023/03/27 12:38:29;;;;;;;81.70;47.88;;;;;;;;;;5018509;28;20025;-77
2023/03/27 12:41:04;;;;;;;61.20;44.75;;;;;;;;;;5005054;28;20044;-77
2023/03/27 12:43:32;;;;;;;77.90;46.50;;;;;;;;;;5001584;28;20064;-77
2023/03/27 12:46:06;;;;;;;69.07;45.33;;;;;;;;;;5006766;28;20079;-76
2023/03/27 12:48:33;;;;;;;114.20;68.63;;;;;;;;;;5002366;28;20046;-79
2023/03/27 12:50:59;;;;;;;28.27;18.55;;;;;;;;;;5003151;28;20025;-77
2023/03/27 12:53:24;;;;;;;13.27;11.98;;;;;;;;;;5004594;28;20341;-76
2023/03/27 12:56:11;;;;;;;17.88;12.75;;;;;;;;;;5013453;28;20062;-76
2023/03/27 12:58:37;;;;;;;6.05;4.80;;;;;;;;;;5015972;28;20025;-74
2023/03/27 13:01:04;;;;;;;28.27;19.75;;;;;;;;;;5016523;28;20033;-76
2023/03/27 13:03:38;;;;;;;28.90;17.45;;;;;;;;;;5014430;28;20029;-81
2023/03/27 13:06:07;;;;;;;4.68;3.33;;;;;;;;;;5016803;28;20025;-79
2023/03/27 13:08:43;;;;;;;6.60;4.68;;;;;;;;;;5016629;28;20029;-80
2023/03/27 13:11:28;;;;;;;60.33;33.63;;;;;;;;;;5012083;28;20356;-81
2023/03/27 13:14:05;;;;;;;24.45;13.48;;;;;;;;;;5011269;28;20061;-78
2023/03/27 13:16:33;;;;;;;4.95;4.55;;;;;;;;;;5003776;28;20037;-79
2023/03/27 13:19:21;;;;;;;7.50;6.70;;;;;;;;;;5003490;28;20045;-79
2023/03/27 13:22:02;;;;;;;12.77;10.52;;;;;;;;;;5010448;28;20045;-79
2023/03/27 13:24:46;;;;;;;3.63;3.00;;;;;;;;;;5015882;28;20033;-81
2023/03/27 13:27:30;;;;;;;24.58;21.88;;;;;;;;;;5015863;28;20570;-78
2023/03/27 13:29:56;;;;;;;13.00;10.00;;;;;;;;;;5016346;28;20025;-79
2023/03/27 13:32:32;;;;;;;16.30;14.48;;;;;;;;;;5011727;28;20071;-80
2023/03/27 13:35:15;;;;;;;15.05;12.85;;;;;;;;;;5012810;28;20152;-79
2023/03/27 13:37:46;;;;;;;16.25;14.60;;;;;;;;;;5014692;28;20111;-81
2023/03/27 13:40:19;;;;;;;10.63;7.03;;;;;;;;;;5013696;28;20029;-79
2023/03/27 13:42:47;;;;;;;7.75;7.05;;;;;;;;;;5001243;28;20457;-80
2023/03/27 13:45:22;;;;;;;5.25;4.45;;;;;;;;;;5014310;28;20064;-80
2023/03/27 13:48:04;;;;;;;9.55;8.75;;;;;;;;;;5016727;28;20056;-80
2023/03/27 13:50:32;;;;;;;6.75;5.90;;;;;;;;;;5006015;28;20026;-78
2023/03/27 13:52:57;;;;;;;13.30;9.32;;;;;;;;;;5012443;28;20018;-82
2023/03/27 13:55:33;;;;;;;8.60;5.30;;;;;;;;;;5013971;28;20030;-79
2023/03/27 13:58:13;;;;;;;8.20;5.47;;;;;;;;;;5012438;28;20120;-79
2023/03/27 14:00:58;;;;;;;14.38;11.40;;;;;;;;;;5006200;28;20033;-80
2023/03/27 14:03:24;;;;;;;6.38;5.75;;;;;;;;;;5006607;28;20041;-78
2023/03/27 14:06:04;;;;;;;6.80;6.10;;;;;;;;;;5014000;28;20051;-79
2023/03/27 14:08:38;;;;;;;10.77;8.30;;;;;;;;;;5015489;28;20464;-78
2023/03/27 14:11:03;;;;;;;10.88;8.23;;;;;;;;;;5013206;28;20109;-78
2023/03/27 14:13:34;;;;;;;13.50;11.55;;;;;;;;;;4991960;28;20639;-78
2023/03/27 14:16:00;;;;;;;6.63;6.03;;;;;;;;;;4994843;28;20033;-79
2023/03/27 14:18:44;;;;;;;6.80;5.68;;;;;;;;;;5006465;28;20034;-80
2023/03/27 14:21:13;;;;;;;5.95;4.85;;;;;;;;;;5004105;28;20029;-78
2023/03/27 14:23:42;;;;;;;5.90;3.63;;;;;;;;;;5010703;28;20164;-77
2023/03/27 14:26:13;;;;;;;8.55;4.55;;;;;;;;;;5016363;28;20087;-77
2023/03/27 14:28:48;;;;;;;7.63;4.30;;;;;;;;;;5005381;28;20025;-78
2023/03/27 14:31:17;;;;;;;10.13;5.70;;;;;;;;;;5027460;28;20042;-76
2023/03/27 14:33:59;;;;;;;8.05;5.93;;;;;;;;;;5014715;28;20067;-77
2023/03/27 14:36:28;;;;;;;5.45;3.72;;;;;;;;;;5014081;28;20064;-78